LQTZ/TZL METAR and TAF weather

Enter ICAO airport designator
Station Type Date Time Source
LQTZ METAR 2020/04/09 09:00 UTC NOAA

LQTZ 090900Z VRB02KT CAVOK 16/03 Q1023


Station Type Date Time Source
LQTZ Decoded METAR 2020/04/09 09:00 UTC NOAA

Tuzla, Bosnia and Herzegovina (LQTZ) 44-33N 018-42E
Apr 09, 2020 - 05:00 AM EDT / 2020.04.09 0900 UTC
Wind: Variable at 2 MPH (2 KT):0
Visibility: greater than 7 mile(s):0
Temperature: 60 F (16 C)
Dew Point: 37 F (3 C)
Relative Humidity: 41%
Pressure (altimeter): 30.21 in. Hg (1023 hPa)
ob: LQTZ 090900Z VRB02KT CAVOK 16/03 Q1023
cycle: 9

Station Type Date Time Source
LQTZ TAF 2020/04/09 06:06 UTC NOAA

TAF LQTZ 090659Z 0906/1006 09004KT CAVOK TX22/0914Z TN01/1003Z

Example: see airport list